createdAt,value
2019-05-13T00:00:34.257Z,1.30
2019-05-13T00:03:03.757Z,1.05
2019-05-13T00:05:33.990Z,1.20
2019-05-13T00:08:03.679Z,1.02
2019-05-13T00:10:35.047Z,1.10
2019-05-13T00:13:04.426Z,1.10
2019-05-13T00:15:34.188Z,1.07
2019-05-13T00:18:03.990Z,1.20
2019-05-13T00:20:34.063Z,1.17
2019-05-13T00:23:03.891Z,1.27
2019-05-13T00:25:35.509Z,1.10
2019-05-13T00:28:04.404Z,1.30
2019-05-13T00:30:34.193Z,1.40
2019-05-13T00:33:03.995Z,1.25
2019-05-13T00:35:33.852Z,1.00
2019-05-13T00:38:03.906Z,1.30
2019-05-13T00:40:34.002Z,1.20
2019-05-13T00:43:03.992Z,1.60
2019-05-13T00:45:33.893Z,1.70
2019-05-13T00:48:04.673Z,1.60
2019-05-13T00:50:35.291Z,1.62
2019-05-13T00:53:04.614Z,2.60
2019-05-13T00:55:34.695Z,2.00
2019-05-13T00:58:04.863Z,1.70
2019-05-13T01:00:34.095Z,1.55
2019-05-13T01:03:03.960Z,1.40
2019-05-13T01:05:33.993Z,1.25
2019-05-13T01:08:05.840Z,1.47
2019-05-13T01:10:34.849Z,1.42
2019-05-13T01:13:04.657Z,1.50
2019-05-13T01:15:34.635Z,1.20
2019-05-13T01:18:04.169Z,0.95
2019-05-13T01:20:34.776Z,1.00
2019-05-13T01:23:04.059Z,1.10
2019-05-13T01:25:34.343Z,0.70
2019-05-13T01:28:04.619Z,1.50
2019-05-13T01:30:34.589Z,2.55
2019-05-13T01:33:04.323Z,2.92
2019-05-13T01:35:34.228Z,2.87
2019-05-13T01:38:04.544Z,2.00
2019-05-13T01:40:34.886Z,1.42
2019-05-13T01:43:04.218Z,1.80
2019-05-13T01:45:33.861Z,1.70
2019-05-13T01:48:07.237Z,2.70
2019-05-13T01:50:34.056Z,3.12
2019-05-13T01:53:04.314Z,2.60
2019-05-13T01:55:34.139Z,2.80
2019-05-13T01:58:04.206Z,3.17
2019-05-13T02:00:35.395Z,2.25
2019-05-13T02:03:04.376Z,2.55
2019-05-13T02:05:37.013Z,1.37
2019-05-13T02:08:05.750Z,1.75
2019-05-13T02:10:54.317Z,1.47
2019-05-13T02:13:24.346Z,1.60
2019-05-13T02:15:55.574Z,1.40
2019-05-13T02:18:24.839Z,1.35
2019-05-13T02:20:55.382Z,1.40
2019-05-13T02:23:24.370Z,1.30
2019-05-13T02:25:54.320Z,1.82
2019-05-13T02:28:33.586Z,1.42
2019-05-13T02:31:02.266Z,1.47
2019-05-13T02:33:33.977Z,1.37
2019-05-13T02:36:02.889Z,1.10
2019-05-13T02:38:35.474Z,1.07
2019-05-13T02:41:03.057Z,1.67
2019-05-13T02:43:33.334Z,1.57
2019-05-13T02:46:04.525Z,1.77
2019-05-13T02:48:35.023Z,1.40
2019-05-13T02:51:04.159Z,1.40
2019-05-13T02:53:33.735Z,1.70
2019-05-13T02:56:03.286Z,1.55
2019-05-13T02:58:33.270Z,2.15
2019-05-13T03:01:03.556Z,3.30
2019-05-13T03:03:33.154Z,6.67
2019-05-13T03:06:02.891Z,5.75
2019-05-13T03:08:41.046Z,5.62
2019-05-13T03:11:03.317Z,5.22
2019-05-13T03:13:32.858Z,7.78
2019-05-13T03:16:15.476Z,6.20
2019-05-13T03:18:45.147Z,6.05
2019-05-13T03:21:13.807Z,6.25
2019-05-13T03:23:43.946Z,7.72
2019-05-13T03:26:13.516Z,6.62
2019-05-13T03:28:43.977Z,7.28
2019-05-13T03:31:16.661Z,7.75
2019-05-13T03:33:46.698Z,8.15
2019-05-13T03:36:16.379Z,6.87
2019-05-13T03:39:01.827Z,6.15
2019-05-13T03:41:16.965Z,6.35
2019-05-13T03:43:46.485Z,5.65
2019-05-13T03:46:15.318Z,5.70
2019-05-13T03:48:45.396Z,6.20
2019-05-13T03:51:14.255Z,5.60
2019-05-13T03:53:43.808Z,3.35
2019-05-13T03:56:13.265Z,3.60
2019-05-13T03:58:43.651Z,3.17
2019-05-13T04:01:13.533Z,3.45
2019-05-13T04:03:44.060Z,4.08
2019-05-13T04:06:14.059Z,4.12
2019-05-13T04:08:43.795Z,3.15
2019-05-13T04:11:13.250Z,2.70
2019-05-13T04:13:43.079Z,3.05
2019-05-13T04:16:13.444Z,3.17
2019-05-13T04:18:44.604Z,2.80
2019-05-13T04:21:13.709Z,3.10
2019-05-13T04:23:43.105Z,2.65
2019-05-13T04:26:14.730Z,2.90
2019-05-13T04:28:43.552Z,2.83
2019-05-13T04:31:14.528Z,4.08
2019-05-13T04:33:43.519Z,4.62
2019-05-13T04:36:13.693Z,3.40
2019-05-13T04:38:44.129Z,3.98
2019-05-13T04:41:13.147Z,3.83
2019-05-13T04:43:43.544Z,8.20
2019-05-13T04:46:14.275Z,10.82
2019-05-13T04:48:44.622Z,10.68
2019-05-13T04:51:14.276Z,10.40
2019-05-13T04:53:43.743Z,11.28
2019-05-13T04:56:13.597Z,11.15
2019-05-13T04:58:43.478Z,11.80
2019-05-13T05:01:17.727Z,12.78
2019-05-13T05:03:55.294Z,13.50
2019-05-13T05:06:32.852Z,12.07
2019-05-13T05:09:08.765Z,11.53
2019-05-13T05:11:56.500Z,10.93
2019-05-13T05:14:46.625Z,9.70
2019-05-13T05:17:24.485Z,10.32
2019-05-13T05:20:07.923Z,9.38
2019-05-13T05:22:57.456Z,8.33
2019-05-13T05:26:01.255Z,9.05
2019-05-13T05:28:41.234Z,8.98
2019-05-13T05:31:18.270Z,8.23
2019-05-13T05:33:56.295Z,7.67
2019-05-13T05:36:52.697Z,9.15
2019-05-13T05:39:28.404Z,8.40
2019-05-13T05:42:02.175Z,9.00
2019-05-13T05:44:32.400Z,8.05
2019-05-13T05:47:03.360Z,9.63
2019-05-13T05:49:32.636Z,7.90
2019-05-13T05:52:04.350Z,8.13
2019-05-13T05:54:35.907Z,8.98
2019-05-13T05:57:06.005Z,7.50
2019-05-13T05:59:35.656Z,8.05
2019-05-13T06:02:05.339Z,8.88
2019-05-13T06:04:34.000Z,8.08
2019-05-13T06:07:03.595Z,9.08
2019-05-13T06:09:32.766Z,8.15
2019-05-13T06:12:02.091Z,7.45
2019-05-13T06:14:32.669Z,8.00
2019-05-13T06:17:02.708Z,8.50
2019-05-13T06:19:32.186Z,9.00
2019-05-13T06:22:02.359Z,9.13
2019-05-13T06:24:31.923Z,8.10
2019-05-13T06:27:01.812Z,8.00
2019-05-13T06:29:31.641Z,7.58
2019-05-13T06:32:15.055Z,7.25
2019-05-13T06:34:33.139Z,7.22
2019-05-13T06:37:02.156Z,8.10
2019-05-13T06:39:31.974Z,8.85
2019-05-13T06:42:03.033Z,8.05
2019-05-13T06:44:31.987Z,8.03
2019-05-13T06:47:02.677Z,8.78
2019-05-13T06:49:32.226Z,9.88
2019-05-13T06:52:01.952Z,12.00
2019-05-13T06:54:33.063Z,11.30
2019-05-13T06:57:04.348Z,11.38
2019-05-13T06:59:32.106Z,10.78
2019-05-13T07:02:02.113Z,10.78
2019-05-13T07:04:32.719Z,9.88
2019-05-13T07:07:12.251Z,10.32
2019-05-13T07:09:32.703Z,10.25
2019-05-13T07:12:03.171Z,9.60
2019-05-13T07:14:32.642Z,9.10
2019-05-13T07:17:02.118Z,10.08
2019-05-13T07:19:32.222Z,10.80
2019-05-13T07:22:02.723Z,10.03
2019-05-13T07:24:32.433Z,10.90
2019-05-13T07:27:02.032Z,10.38
2019-05-13T07:29:32.462Z,9.83
2019-05-13T07:32:01.961Z,11.78
2019-05-13T07:34:33.623Z,9.88
2019-05-13T07:37:02.354Z,11.68
2019-05-13T07:39:32.943Z,11.40
2019-05-13T07:42:05.271Z,12.07
2019-05-13T07:44:32.643Z,12.43
2019-05-13T07:47:03.300Z,12.05
2019-05-13T07:49:32.194Z,12.00
2019-05-13T07:52:01.813Z,12.58
2019-05-13T07:54:33.014Z,11.78
2019-05-13T07:57:02.185Z,12.37
2019-05-13T07:59:32.070Z,11.60
2019-05-13T08:02:02.207Z,11.83
2019-05-13T08:04:33.380Z,11.75
2019-05-13T08:07:02.490Z,13.10
2019-05-13T08:09:32.162Z,14.43
2019-05-13T08:12:10.240Z,13.62
2019-05-13T08:14:34.063Z,15.38
2019-05-13T08:17:03.072Z,15.03
2019-05-13T08:19:32.794Z,14.85
2019-05-13T08:22:02.400Z,13.88
2019-05-13T08:24:31.836Z,13.10
2019-05-13T08:27:02.113Z,13.70
2019-05-13T08:29:32.893Z,14.98
2019-05-13T08:32:02.976Z,14.43
2019-05-13T08:34:33.181Z,15.13
2019-05-13T08:37:03.443Z,16.10
2019-05-13T08:39:38.086Z,16.30
2019-05-13T08:42:15.572Z,17.45
2019-05-13T08:44:34.355Z,17.80
2019-05-13T08:47:03.605Z,16.12
2019-05-13T08:49:32.763Z,16.27
2019-05-13T08:52:02.037Z,15.90
2019-05-13T08:54:32.762Z,16.60
2019-05-13T08:57:02.914Z,17.48
2019-05-13T08:59:32.308Z,16.77
2019-05-13T09:02:04.082Z,16.75
2019-05-13T09:04:32.809Z,15.43
2019-05-13T09:07:02.634Z,15.98
2019-05-13T09:09:32.270Z,15.93
2019-05-13T09:12:02.598Z,15.53
2019-05-13T09:14:32.506Z,15.58
2019-05-13T09:17:01.949Z,16.45
2019-05-13T09:19:32.264Z,15.28
2019-05-13T09:22:02.981Z,16.12
2019-05-13T09:24:37.340Z,15.75
2019-05-13T09:27:02.372Z,15.58
2019-05-13T09:29:32.235Z,15.78
2019-05-13T09:32:03.752Z,15.00
2019-05-13T09:34:33.188Z,14.90
2019-05-13T09:37:02.695Z,13.83
2019-05-13T09:39:32.487Z,13.35
2019-05-13T09:44:32.852Z,15.03
2019-05-13T09:47:02.808Z,16.05
2019-05-13T09:49:32.991Z,13.83
2019-05-13T09:52:02.184Z,15.48
2019-05-13T09:54:32.757Z,15.15
2019-05-13T09:57:01.985Z,14.43
2019-05-13T09:59:31.786Z,15.10
2019-05-13T10:02:03.136Z,16.35
2019-05-13T10:04:32.019Z,18.80
2019-05-13T10:07:02.138Z,17.98
2019-05-13T10:09:32.691Z,16.95
2019-05-13T10:12:03.178Z,15.60
2019-05-13T10:14:32.903Z,16.40
2019-05-13T10:17:06.090Z,15.38
2019-05-13T10:19:32.776Z,14.30
2019-05-13T10:22:01.892Z,12.47
2019-05-13T10:24:32.696Z,11.65
2019-05-13T10:27:02.588Z,11.20
2019-05-13T10:29:32.236Z,12.73
2019-05-13T10:32:02.707Z,12.75
2019-05-13T10:34:32.491Z,12.47
2019-05-13T10:37:02.777Z,11.33
2019-05-13T10:39:31.704Z,11.35
2019-05-13T10:42:03.019Z,10.48
2019-05-13T10:44:30.838Z,11.48
2019-05-13T10:47:01.982Z,11.18
2019-05-13T10:49:32.759Z,11.03
2019-05-13T10:52:02.877Z,10.98
2019-05-13T10:54:32.509Z,10.28
2019-05-13T10:57:03.947Z,10.20
2019-05-13T10:59:31.629Z,11.78
2019-05-13T11:02:02.156Z,12.37
2019-05-13T11:04:32.698Z,10.80
2019-05-13T11:07:03.017Z,10.70
2019-05-13T11:09:32.925Z,9.88
2019-05-13T11:12:02.203Z,9.83
2019-05-13T11:14:32.269Z,9.43
2019-05-13T11:17:01.727Z,9.35
2019-05-13T11:19:36.163Z,9.55
2019-05-13T11:22:03.379Z,8.65
2019-05-13T11:24:32.666Z,9.63
2019-05-13T11:27:02.825Z,9.40
2019-05-13T11:29:32.653Z,10.32
2019-05-13T11:32:03.237Z,9.33
2019-05-13T11:34:32.882Z,10.78
2019-05-13T11:37:03.654Z,8.60
2019-05-13T11:39:32.851Z,9.10
2019-05-13T11:42:02.270Z,9.30
2019-05-13T11:44:32.248Z,9.68
2019-05-13T11:47:02.434Z,10.08
2019-05-13T11:49:31.838Z,10.43
2019-05-13T11:54:31.117Z,9.15
2019-05-13T11:57:02.564Z,9.28
2019-05-13T11:59:32.745Z,9.43
2019-05-13T12:02:07.434Z,9.80
2019-05-13T12:04:49.216Z,8.85
2019-05-13T12:07:17.872Z,9.78
2019-05-13T12:09:46.525Z,8.45
2019-05-13T12:12:30.488Z,9.03
2019-05-13T12:15:22.474Z,8.55
2019-05-13T12:17:24.781Z,8.20
2019-05-13T12:20:20.823Z,7.70
2019-05-13T12:22:53.810Z,8.00
2019-05-13T12:25:22.631Z,7.97
2019-05-13T12:28:07.427Z,8.25
2019-05-13T12:30:44.386Z,7.80
2019-05-13T12:33:13.673Z,8.15
2019-05-13T12:35:42.412Z,8.45
2019-05-13T12:38:13.428Z,8.23
2019-05-13T12:40:43.109Z,8.25
2019-05-13T12:43:13.455Z,9.18
2019-05-13T12:45:43.553Z,7.92
2019-05-13T12:48:13.923Z,8.18
2019-05-13T12:50:44.252Z,8.35
2019-05-13T12:53:13.070Z,8.78
2019-05-13T12:55:41.740Z,8.95
2019-05-13T12:58:12.166Z,8.93
2019-05-13T13:00:45.022Z,8.85
2019-05-13T13:03:13.738Z,8.90
2019-05-13T13:05:43.322Z,8.58
2019-05-13T13:08:24.702Z,9.10
2019-05-13T13:10:46.570Z,8.85
2019-05-13T13:13:51.584Z,9.15
2019-05-13T13:15:52.928Z,8.53
2019-05-13T13:18:22.426Z,8.83
2019-05-13T13:21:00.295Z,9.13
2019-05-13T13:23:23.716Z,8.63
2019-05-13T13:25:56.669Z,10.03
2019-05-13T13:30:53.505Z,9.05
2019-05-13T13:33:22.299Z,9.70
2019-05-13T13:35:59.563Z,9.00
2019-05-13T13:38:25.318Z,8.88
2019-05-13T13:43:24.911Z,8.20
2019-05-13T13:46:07.544Z,8.53
2019-05-13T13:48:25.726Z,8.75
2019-05-13T13:50:56.522Z,8.08
2019-05-13T13:53:26.455Z,10.82
2019-05-13T13:55:56.159Z,13.98
2019-05-13T13:58:25.888Z,13.00
2019-05-13T14:01:05.834Z,10.03
2019-05-13T14:03:25.085Z,8.00
2019-05-13T14:05:54.287Z,8.95
2019-05-13T14:06:25.319Z,14.43
2019-05-13T14:06:29.233Z,8.43
2019-05-13T14:06:58.554Z,8.28
2019-05-13T14:07:09.010Z,8.60
2019-05-13T14:08:23.580Z,8.13
2019-05-13T14:10:52.407Z,8.45
2019-05-13T14:13:21.941Z,7.35
2019-05-13T14:15:52.779Z,8.30
2019-05-13T14:18:26.552Z,7.87
2019-05-13T14:20:52.888Z,8.18
2019-05-13T14:23:22.076Z,8.30
2019-05-13T14:25:52.961Z,7.45
2019-05-13T14:28:23.016Z,8.95
2019-05-13T14:30:51.653Z,7.67
2019-05-13T14:33:20.324Z,8.18
2019-05-13T14:35:48.971Z,7.50
2019-05-13T14:38:17.756Z,7.80
2019-05-13T14:40:51.847Z,8.35
2019-05-13T14:43:22.970Z,8.65
2019-05-13T14:45:53.027Z,8.03
2019-05-13T14:48:22.371Z,8.58
2019-05-13T14:50:52.316Z,7.70
2019-05-13T14:53:32.397Z,8.25
2019-05-13T14:56:02.962Z,7.17
2019-05-13T14:58:45.199Z,8.10
2019-05-13T15:01:19.770Z,7.83
2019-05-13T15:03:48.900Z,7.90
2019-05-13T15:06:17.664Z,8.15
2019-05-13T15:08:46.492Z,9.55
2019-05-13T15:11:16.860Z,9.25
2019-05-13T15:13:47.219Z,9.68
2019-05-13T15:16:17.551Z,9.40
2019-05-13T15:18:46.215Z,9.55
2019-05-13T15:21:14.784Z,9.45
2019-05-13T15:23:46.023Z,9.03
2019-05-13T15:26:14.699Z,8.75
2019-05-13T15:28:43.549Z,8.98
2019-05-13T15:31:12.219Z,9.03
2019-05-13T15:33:41.584Z,8.90
2019-05-13T15:36:11.917Z,8.70
2019-05-13T15:38:46.092Z,8.75
2019-05-13T15:41:15.869Z,9.15
2019-05-13T15:43:46.667Z,8.65
2019-05-13T15:46:15.578Z,9.50
2019-05-13T15:48:44.162Z,8.53
2019-05-13T15:51:12.807Z,7.87
2019-05-13T15:53:43.684Z,8.55
2019-05-13T15:56:12.506Z,9.10
2019-05-13T15:58:43.590Z,8.30
2019-05-13T16:01:12.521Z,8.85
2019-05-13T16:03:41.693Z,9.75
2019-05-13T16:06:17.542Z,9.85
2019-05-13T16:08:57.175Z,8.80
2019-05-13T16:11:16.615Z,9.88
2019-05-13T16:13:54.040Z,11.68
2019-05-13T16:16:32.283Z,9.43
2019-05-13T16:19:00.549Z,8.33
2019-05-13T16:21:32.168Z,9.40
2019-05-13T16:24:02.657Z,9.10
2019-05-13T16:26:32.073Z,9.08
2019-05-13T16:29:02.161Z,9.40
2019-05-13T16:31:31.853Z,10.13
2019-05-13T16:34:01.565Z,9.85
2019-05-13T16:36:36.298Z,9.15
2019-05-13T16:39:08.581Z,10.35
2019-05-13T16:41:42.603Z,9.40
2019-05-13T16:44:11.977Z,9.08
2019-05-13T16:46:44.848Z,10.30
2019-05-13T16:49:13.583Z,10.55
2019-05-13T16:51:42.826Z,10.55
2019-05-13T16:54:11.785Z,10.88
2019-05-13T16:56:42.039Z,10.23
2019-05-13T16:59:11.019Z,10.40
2019-05-13T17:01:41.829Z,10.65
2019-05-13T17:04:12.364Z,10.25
2019-05-13T17:06:41.642Z,10.80
2019-05-13T17:09:11.525Z,10.90
2019-05-13T17:11:41.510Z,10.20
2019-05-13T17:14:10.574Z,12.75
2019-05-13T17:16:41.186Z,10.45
2019-05-13T17:19:11.852Z,10.15
2019-05-13T17:21:41.092Z,10.58
2019-05-13T17:24:12.319Z,10.85
2019-05-13T17:26:41.786Z,10.32
2019-05-13T17:29:12.032Z,10.43
2019-05-13T17:31:41.782Z,10.53
2019-05-13T17:34:12.080Z,11.12
2019-05-13T17:36:41.948Z,12.93
2019-05-13T17:39:12.486Z,11.35
2019-05-13T17:41:41.630Z,10.40
2019-05-13T17:44:11.649Z,12.37
2019-05-13T17:46:41.795Z,9.20
2019-05-13T17:49:11.854Z,9.20
2019-05-13T17:51:42.591Z,11.55
2019-05-13T17:54:11.972Z,11.08
2019-05-13T17:56:42.723Z,12.55
2019-05-13T17:59:11.706Z,11.78
2019-05-13T18:01:41.261Z,11.38
2019-05-13T18:04:11.870Z,12.47
2019-05-13T18:06:41.725Z,13.20
2019-05-13T18:09:11.930Z,11.40
2019-05-13T18:11:45.305Z,12.10
2019-05-13T18:14:14.093Z,14.85
2019-05-13T18:16:42.798Z,14.00
2019-05-13T18:19:12.119Z,17.92
2019-05-13T18:22:05.188Z,19.62
2019-05-13T18:24:35.183Z,17.75
2019-05-13T18:29:55.655Z,16.07
2019-05-13T18:32:26.216Z,15.78
2019-05-13T18:34:56.293Z,14.30
2019-05-13T18:37:25.986Z,5.60
2019-05-13T18:39:54.750Z,6.60
2019-05-13T18:42:23.410Z,7.47
2019-05-13T18:44:56.310Z,5.30
2019-05-13T18:47:25.056Z,5.62
2019-05-13T18:49:53.704Z,5.08
2019-05-13T18:52:22.500Z,6.10
2019-05-13T18:54:51.476Z,4.47
2019-05-13T18:57:21.323Z,4.90
2019-05-13T18:59:52.076Z,5.22
2019-05-13T19:02:21.446Z,5.97
2019-05-13T19:04:52.121Z,5.05
2019-05-13T19:07:21.888Z,4.87
2019-05-13T19:09:52.272Z,5.03
2019-05-13T19:12:21.949Z,4.90
2019-05-13T19:14:51.674Z,5.30
2019-05-13T19:17:22.345Z,5.10
2019-05-13T19:19:51.530Z,5.10
2019-05-13T19:22:21.445Z,5.75
2019-05-13T19:24:51.808Z,7.00
2019-05-13T19:27:23.793Z,5.40
2019-05-13T19:29:52.518Z,6.33
2019-05-13T19:32:21.985Z,5.47
2019-05-13T19:34:53.782Z,5.90
2019-05-13T19:37:22.665Z,3.87
2019-05-13T19:39:51.504Z,3.98
2019-05-13T19:42:22.369Z,4.05
2019-05-13T19:44:51.200Z,3.12
2019-05-13T19:47:20.168Z,3.10
2019-05-13T19:49:49.044Z,3.25
2019-05-13T19:52:17.775Z,4.03
2019-05-13T19:54:46.454Z,3.25
2019-05-13T19:57:15.080Z,2.90
2019-05-13T19:59:43.912Z,2.80
2019-05-13T20:02:12.589Z,2.87
2019-05-13T20:04:41.565Z,2.45
2019-05-13T20:07:11.900Z,3.00
2019-05-13T20:09:42.547Z,3.08
2019-05-13T20:12:11.332Z,3.50
2019-05-13T20:14:40.114Z,3.40
2019-05-13T20:17:09.285Z,3.40
2019-05-13T20:19:47.604Z,3.52
2019-05-13T20:22:08.542Z,3.52
2019-05-13T20:24:37.300Z,3.20
2019-05-13T20:27:05.948Z,3.67
2019-05-13T20:29:34.656Z,3.20
2019-05-13T20:32:03.408Z,3.15
2019-05-13T20:34:32.228Z,2.92
2019-05-13T20:37:02.089Z,3.70
2019-05-13T20:39:32.071Z,4.83
2019-05-13T20:42:01.578Z,4.50
2019-05-13T20:44:31.341Z,4.75
2019-05-13T20:47:01.550Z,5.55
2019-05-13T20:49:31.223Z,6.62
2019-05-13T20:52:00.200Z,6.92
2019-05-13T20:54:31.207Z,7.55
2019-05-13T20:57:01.788Z,8.35
2019-05-13T20:59:31.998Z,7.50
2019-05-13T21:02:02.251Z,8.80
2019-05-13T21:04:32.207Z,8.03
2019-05-13T21:07:02.089Z,7.87
2019-05-13T21:09:31.671Z,7.45
2019-05-13T21:12:01.744Z,7.97
2019-05-13T21:14:32.018Z,7.28
2019-05-13T21:17:01.462Z,6.62
2019-05-13T21:19:39.265Z,6.72
2019-05-13T21:22:00.373Z,6.87
2019-05-13T21:24:29.013Z,6.80
2019-05-13T21:26:57.721Z,7.95
2019-05-13T21:29:26.388Z,7.60
2019-05-13T21:31:55.095Z,7.45
2019-05-13T21:34:23.756Z,7.47
2019-05-13T21:36:52.440Z,7.80
2019-05-13T21:39:21.485Z,6.62
2019-05-13T21:41:51.935Z,6.90
2019-05-13T21:44:20.704Z,7.12
2019-05-13T21:46:51.416Z,6.85
2019-05-13T21:49:21.345Z,7.50
2019-05-13T21:51:52.045Z,7.08
2019-05-13T21:54:20.459Z,6.75
2019-05-13T21:56:51.468Z,7.42
2019-05-13T21:59:23.063Z,7.12
2019-05-13T22:01:52.079Z,6.62
2019-05-13T22:04:21.504Z,4.47
2019-05-13T22:06:50.368Z,3.83
2019-05-13T22:09:19.026Z,3.33
2019-05-13T22:11:47.716Z,2.83
2019-05-13T22:14:16.353Z,3.12
2019-05-13T22:16:45.089Z,2.98
2019-05-13T22:19:13.791Z,2.65
2019-05-13T22:21:42.579Z,2.75
2019-05-13T22:24:11.717Z,3.17
2019-05-13T22:26:42.038Z,3.08
2019-05-13T22:29:11.082Z,3.40
2019-05-13T22:31:41.821Z,4.33
2019-05-13T22:34:12.138Z,5.28
2019-05-13T22:36:40.451Z,6.17
2019-05-13T22:39:11.347Z,9.60
2019-05-13T22:41:41.887Z,12.43
2019-05-13T22:44:11.663Z,11.73
2019-05-13T22:46:41.310Z,14.25
2019-05-13T22:49:11.684Z,14.83
2019-05-13T22:51:41.326Z,14.40
2019-05-13T22:54:11.892Z,13.65
2019-05-13T22:56:41.254Z,12.95
2019-05-13T22:59:12.262Z,12.28
2019-05-13T23:01:41.913Z,11.78
2019-05-13T23:04:11.451Z,8.40
2019-05-13T23:06:41.023Z,11.30
2019-05-13T23:09:12.237Z,10.50
2019-05-13T23:11:41.784Z,11.53
2019-05-13T23:14:13.372Z,12.23
2019-05-13T23:16:42.171Z,11.53
2019-05-13T23:19:11.212Z,11.48
2019-05-13T23:21:41.846Z,12.20
2019-05-13T23:24:11.342Z,11.15
2019-05-13T23:26:42.274Z,11.97
2019-05-13T23:29:10.653Z,11.60
2019-05-13T23:31:41.329Z,11.35
2019-05-13T23:34:11.844Z,10.63
2019-05-13T23:36:42.273Z,9.60
2019-05-13T23:39:11.623Z,8.98
2019-05-13T23:41:41.635Z,8.30
2019-05-13T23:44:24.217Z,7.95
2019-05-13T23:46:42.066Z,6.80
2019-05-13T23:49:11.834Z,7.15
2019-05-13T23:51:41.359Z,7.15
2019-05-13T23:54:12.261Z,6.25
2019-05-13T23:56:41.692Z,7.08
2019-05-13T23:59:15.716Z,7.15
